createdAt,value
2018-05-16T00:02:18.325Z,101381.33
2018-05-16T00:04:46.021Z,101382.41
2018-05-16T00:07:13.617Z,101384.66
2018-05-16T00:09:41.345Z,101390.02
2018-05-16T00:12:08.962Z,101382.69
2018-05-16T00:14:36.536Z,101382.81
2018-05-16T00:17:04.460Z,101382.81
2018-05-16T00:19:32.067Z,101373.73
2018-05-16T00:21:59.768Z,101379.15
2018-05-16T00:24:27.661Z,101380.28
2018-05-16T00:26:55.512Z,101382.05
2018-05-16T00:29:23.181Z,101385.23
2018-05-16T00:31:50.768Z,101384.48
2018-05-16T00:34:18.413Z,101385.97
2018-05-16T00:36:46.325Z,101377.67
2018-05-16T00:39:13.971Z,101380.86
2018-05-16T00:41:41.660Z,101379.16
2018-05-16T00:44:09.712Z,101374.01
2018-05-16T00:46:37.297Z,101374.25
2018-05-16T00:49:05.049Z,101369.42
2018-05-16T00:51:32.667Z,101366.34
2018-05-16T00:54:00.255Z,101362.02
2018-05-16T00:56:27.905Z,101365.69
2018-05-16T00:58:55.541Z,101368.63
2018-05-16T01:01:23.199Z,101372.74
2018-05-16T01:03:50.939Z,101369.17
2018-05-16T01:06:18.544Z,101379.91
2018-05-16T01:08:46.482Z,101371.34
2018-05-16T01:11:14.115Z,101370.75
2018-05-16T01:13:41.736Z,101369.69
2018-05-16T01:16:09.342Z,101371.22
2018-05-16T01:18:37.027Z,101376.75
2018-05-16T01:21:04.641Z,101372.44
2018-05-16T01:23:32.275Z,101374.08
2018-05-16T01:25:59.852Z,101371.95
2018-05-16T01:28:27.485Z,101371.38
2018-05-16T01:30:55.119Z,101381.38
2018-05-16T01:33:23.008Z,101369.05
2018-05-16T01:35:50.583Z,101375.04
2018-05-16T01:38:18.188Z,101376.65
2018-05-16T01:40:45.811Z,101380.88
2018-05-16T01:43:13.395Z,101378.23
2018-05-16T01:45:40.995Z,101382.11
2018-05-16T01:48:08.708Z,101387.83
2018-05-16T01:50:36.273Z,101379.92
2018-05-16T01:53:03.859Z,101379.58
2018-05-16T01:55:31.529Z,101374.13
2018-05-16T01:57:59.236Z,101375.58
2018-05-16T02:00:26.833Z,101374.96
2018-05-16T02:02:54.794Z,101373.73
2018-05-16T02:05:22.373Z,101370.23
2018-05-16T02:07:50.277Z,101371.57
2018-05-16T02:10:17.987Z,101369.62
2018-05-16T02:12:45.557Z,101370.64
2018-05-16T02:15:13.155Z,101372.59
2018-05-16T02:17:40.789Z,101372.77
2018-05-16T02:20:08.410Z,101375.47
2018-05-16T02:22:36.060Z,101373.28
2018-05-16T02:25:03.880Z,101371.67
2018-05-16T02:27:31.781Z,101377.42
2018-05-16T02:29:59.388Z,101383.51
2018-05-16T02:32:26.998Z,101387.86
2018-05-16T02:34:54.681Z,101372.00
2018-05-16T02:37:22.348Z,101382.65
2018-05-16T02:39:49.926Z,101372.83
2018-05-16T02:42:17.856Z,101373.74
2018-05-16T02:44:45.426Z,101376.08
2018-05-16T02:47:13.044Z,101376.75
2018-05-16T02:49:40.612Z,101380.62
2018-05-16T02:52:08.228Z,101379.70
2018-05-16T02:54:35.843Z,101381.30
2018-05-16T02:57:03.619Z,101383.72
2018-05-16T02:59:31.199Z,101384.30
2018-05-16T03:01:59.684Z,101386.30
2018-05-16T03:04:27.286Z,101382.42
2018-05-16T03:06:54.955Z,101379.45
2018-05-16T03:09:22.628Z,101376.19
2018-05-16T03:11:50.213Z,101382.55
2018-05-16T03:14:18.207Z,101384.50
2018-05-16T03:16:45.776Z,101385.22
2018-05-16T03:19:13.357Z,101389.91
2018-05-16T03:21:40.949Z,101395.52
2018-05-16T03:24:08.529Z,101394.08
2018-05-16T03:26:36.329Z,101396.58
2018-05-16T03:29:03.931Z,101396.34
2018-05-16T03:31:31.740Z,101396.27
2018-05-16T03:33:59.383Z,101399.83
2018-05-16T03:36:27.210Z,101399.89
2018-05-16T03:38:54.788Z,101407.36
2018-05-16T03:41:22.486Z,101406.33
2018-05-16T03:43:50.589Z,101401.02
2018-05-16T03:46:18.166Z,101397.16
2018-05-16T03:48:45.972Z,101397.53
2018-05-16T03:51:13.579Z,101398.88
2018-05-16T03:53:41.157Z,101410.27
2018-05-16T03:56:08.888Z,101404.70
2018-05-16T03:58:48.266Z,101402.13
2018-05-16T04:01:27.631Z,101410.75
2018-05-16T04:04:05.040Z,101410.63
2018-05-16T04:06:32.659Z,101420.55
2018-05-16T04:09:00.269Z,101426.45
2018-05-16T04:11:27.856Z,101421.97
2018-05-16T04:13:55.891Z,101424.13
2018-05-16T04:16:23.486Z,101435.53
2018-05-16T04:18:51.079Z,101433.52
2018-05-16T04:21:19.111Z,101434.55
2018-05-16T04:23:46.703Z,101440.55
2018-05-16T04:26:14.308Z,101436.16
2018-05-16T04:28:42.156Z,101437.45
2018-05-16T04:31:10.022Z,101440.20
2018-05-16T04:33:37.629Z,101435.13
2018-05-16T04:36:05.251Z,101455.50
2018-05-16T04:38:32.921Z,101445.92
2018-05-16T04:41:01.010Z,101449.61
2018-05-16T04:43:29.067Z,101439.33
2018-05-16T04:45:57.199Z,101428.69
2018-05-16T04:48:25.164Z,101444.49
2018-05-16T04:50:53.307Z,101455.52
2018-05-16T04:53:20.981Z,101449.89
2018-05-16T04:55:48.696Z,101446.70
2018-05-16T04:58:16.499Z,101448.62
2018-05-16T05:00:44.063Z,101444.52
2018-05-16T05:03:11.675Z,101443.08
2018-05-16T05:05:39.377Z,101445.64
2018-05-16T05:08:06.956Z,101461.35
2018-05-16T05:10:34.524Z,101467.16
2018-05-16T05:13:02.130Z,101467.16
2018-05-16T05:15:29.737Z,101465.64
2018-05-16T05:17:57.355Z,101466.23
2018-05-16T05:20:25.365Z,101463.66
2018-05-16T05:22:52.985Z,101458.48
2018-05-16T05:25:20.792Z,101466.39
2018-05-16T05:27:48.715Z,101477.63
2018-05-16T05:30:16.318Z,101476.83
2018-05-16T05:32:46.947Z,101484.05
2018-05-16T05:35:14.543Z,101486.00
2018-05-16T05:37:42.540Z,101494.36
2018-05-16T05:40:10.173Z,101486.05
2018-05-16T05:42:37.809Z,101490.86
2018-05-16T05:45:05.608Z,101497.70
2018-05-16T05:47:33.195Z,101499.94
2018-05-16T05:50:00.899Z,101508.68
2018-05-16T05:52:28.468Z,101505.56
2018-05-16T05:54:56.047Z,101504.48
2018-05-16T05:57:24.030Z,101507.37
2018-05-16T05:59:51.673Z,101508.72
2018-05-16T06:02:19.277Z,101503.22
2018-05-16T06:04:46.836Z,101495.11
2018-05-16T06:07:14.793Z,101497.20
2018-05-16T06:09:42.373Z,101495.16
2018-05-16T06:12:10.486Z,101497.84
2018-05-16T06:14:38.288Z,101496.82
2018-05-16T06:17:06.176Z,101496.25
2018-05-16T06:19:34.219Z,101493.06
2018-05-16T06:22:01.788Z,101496.77
2018-05-16T06:24:29.388Z,101497.73
2018-05-16T06:26:57.243Z,101498.04
2018-05-16T06:29:24.928Z,101496.16
2018-05-16T06:31:52.520Z,101500.83
2018-05-16T06:34:20.079Z,101518.92
2018-05-16T06:36:47.693Z,101536.54
2018-05-16T06:39:15.341Z,101532.74
2018-05-16T06:41:42.983Z,101531.72
2018-05-16T06:44:10.641Z,101535.56
2018-05-16T06:46:38.218Z,101532.27
2018-05-16T06:49:05.840Z,101548.55
2018-05-16T06:51:33.425Z,101556.07
2018-05-16T06:54:01.065Z,101556.91
2018-05-16T06:56:28.748Z,101547.13
2018-05-16T06:58:56.262Z,101545.91
2018-05-16T07:01:23.885Z,101563.22
2018-05-16T07:03:51.462Z,101568.02
2018-05-16T07:06:19.025Z,101568.95
2018-05-16T07:08:46.850Z,101563.36
2018-05-16T07:11:14.417Z,101564.73
2018-05-16T07:13:42.215Z,101575.09
2018-05-16T07:16:09.785Z,101580.68
2018-05-16T07:18:37.355Z,101586.95
2018-05-16T07:21:05.365Z,101586.14
2018-05-16T07:23:32.941Z,101588.78
2018-05-16T07:26:00.499Z,101584.39
2018-05-16T07:28:28.331Z,101579.45
2018-05-16T07:30:55.916Z,101578.22
2018-05-16T07:33:23.560Z,101578.70
2018-05-16T07:35:51.253Z,101571.66
2018-05-16T07:38:18.825Z,101565.52
2018-05-16T07:40:46.401Z,101564.70
2018-05-16T07:43:14.006Z,101564.88
2018-05-16T07:45:41.809Z,101563.78
2018-05-16T07:48:09.511Z,101552.50
2018-05-16T07:50:37.083Z,101547.59
2018-05-16T07:53:04.656Z,101541.59
2018-05-16T07:55:32.243Z,101542.69
2018-05-16T07:57:59.805Z,101536.69
2018-05-16T08:00:27.493Z,101547.01
2018-05-16T08:02:55.052Z,101549.03
2018-05-16T08:05:23.098Z,101541.25
2018-05-16T08:07:50.683Z,101543.88
2018-05-16T08:10:18.504Z,101545.22
2018-05-16T08:12:46.241Z,101552.48
2018-05-16T08:15:13.820Z,101557.24
2018-05-16T08:17:41.694Z,101567.52
2018-05-16T08:20:09.418Z,101561.77
2018-05-16T08:22:37.064Z,101558.84
2018-05-16T08:25:04.633Z,101560.08
2018-05-16T08:27:32.305Z,101552.57
2018-05-16T08:30:00.134Z,101553.62
2018-05-16T08:32:27.727Z,101556.56
2018-05-16T08:34:55.668Z,101564.66
2018-05-16T08:37:23.344Z,101567.38
2018-05-16T08:39:50.913Z,101567.64
2018-05-16T08:42:18.637Z,101573.31
2018-05-16T08:44:46.211Z,101569.73
2018-05-16T08:47:13.871Z,101572.72
2018-05-16T08:49:41.481Z,101569.37
2018-05-16T08:52:09.063Z,101568.39
2018-05-16T08:54:36.674Z,101572.22
2018-05-16T08:57:04.301Z,101574.02
2018-05-16T08:59:32.105Z,101568.67
2018-05-16T09:01:59.724Z,101573.55
2018-05-16T09:04:27.550Z,101568.67
2018-05-16T09:06:55.149Z,101573.35
2018-05-16T09:09:22.756Z,101572.89
2018-05-16T09:11:50.368Z,101572.28
2018-05-16T09:14:17.945Z,101569.55
2018-05-16T09:16:45.983Z,101566.48
2018-05-16T09:19:13.561Z,101571.23
2018-05-16T09:21:41.360Z,101564.83
2018-05-16T09:24:09.023Z,101568.23
2018-05-16T09:26:36.596Z,101564.22
2018-05-16T09:29:04.462Z,101564.92
2018-05-16T09:31:32.022Z,101566.35
2018-05-16T09:33:59.588Z,101562.48
2018-05-16T09:36:27.179Z,101568.02
2018-05-16T09:38:55.057Z,101557.22
2018-05-16T09:41:23.009Z,101553.73
2018-05-16T09:43:50.668Z,101558.53
2018-05-16T09:46:18.278Z,101552.50
2018-05-16T09:48:46.147Z,101559.80
2018-05-16T09:51:14.173Z,101549.42
2018-05-16T09:53:42.072Z,101551.31
2018-05-16T09:56:09.709Z,101554.27
2018-05-16T09:58:37.290Z,101557.47
2018-05-16T10:01:04.869Z,101561.48
2018-05-16T10:03:32.740Z,101566.25
2018-05-16T10:06:00.295Z,101569.27
2018-05-16T10:08:27.943Z,101578.61
2018-05-16T10:10:55.543Z,101578.66
2018-05-16T10:13:23.343Z,101583.20
2018-05-16T10:15:51.313Z,101576.48
2018-05-16T10:18:18.959Z,101577.80
2018-05-16T10:20:46.596Z,101565.76
2018-05-16T10:23:14.177Z,101565.29
2018-05-16T10:25:42.097Z,101561.77
2018-05-16T10:28:09.712Z,101565.22
2018-05-16T10:30:37.294Z,101568.84
2018-05-16T10:33:04.897Z,101559.05
2018-05-16T10:35:32.794Z,101564.03
2018-05-16T10:38:00.729Z,101554.34
2018-05-16T10:40:28.307Z,101554.06
2018-05-16T10:42:55.879Z,101553.05
2018-05-16T10:45:23.871Z,101560.84
2018-05-16T10:47:51.990Z,101573.45
2018-05-16T10:50:19.578Z,101561.27
2018-05-16T10:52:47.245Z,101572.95
2018-05-16T10:55:14.804Z,101559.06
2018-05-16T10:57:42.434Z,101559.95
2018-05-16T11:00:10.010Z,101558.95
2018-05-16T11:02:37.717Z,101555.64
2018-05-16T11:05:05.288Z,101555.64
2018-05-16T11:07:32.855Z,101565.33
2018-05-16T11:10:00.459Z,101571.66
2018-05-16T11:12:28.057Z,101565.13
2018-05-16T11:14:55.648Z,101579.14
2018-05-16T11:17:23.322Z,101570.96
2018-05-16T11:19:50.891Z,101567.59
2018-05-16T11:22:19.772Z,101560.69
2018-05-16T11:24:47.349Z,101559.12
2018-05-16T11:27:14.923Z,101563.03
2018-05-16T11:29:42.621Z,101572.53
2018-05-16T11:32:10.216Z,101568.09
2018-05-16T11:34:37.784Z,101576.40
2018-05-16T11:37:05.632Z,101580.17
2018-05-16T11:39:33.235Z,101590.23
2018-05-16T11:42:00.807Z,101585.58
2018-05-16T11:44:28.736Z,101592.78
2018-05-16T11:46:56.677Z,101590.39
2018-05-16T11:49:24.390Z,101586.13
2018-05-16T11:51:51.965Z,101581.08
2018-05-16T11:54:19.561Z,101580.70
2018-05-16T11:56:47.134Z,101574.48
2018-05-16T11:59:14.862Z,101581.86
2018-05-16T12:01:42.604Z,101585.28
2018-05-16T12:04:10.172Z,101575.17
2018-05-16T12:06:37.889Z,101577.53
2018-05-16T12:09:06.303Z,101566.33
2018-05-16T12:11:34.119Z,101586.19
2018-05-16T12:14:01.813Z,101582.81
2018-05-16T12:16:29.432Z,101580.73
2018-05-16T12:18:57.034Z,101573.23
2018-05-16T12:21:24.606Z,101572.55
2018-05-16T12:23:52.606Z,101562.98
2018-05-16T12:26:20.403Z,101568.09
2018-05-16T12:28:48.039Z,101579.50
2018-05-16T12:31:15.850Z,101581.48
2018-05-16T12:33:43.489Z,101585.32
2018-05-16T12:36:11.043Z,101577.56
2018-05-16T12:38:38.623Z,101585.61
2018-05-16T12:41:06.207Z,101583.64
2018-05-16T12:43:33.790Z,101590.44
2018-05-16T12:46:01.408Z,101575.41
2018-05-16T12:48:29.026Z,101596.77
2018-05-16T12:50:56.909Z,101584.11
2018-05-16T12:53:24.573Z,101620.45
2018-05-16T12:55:52.161Z,101616.11
2018-05-16T12:58:20.296Z,101613.19
2018-05-16T13:00:47.870Z,101626.91
2018-05-16T13:03:15.506Z,101636.72
2018-05-16T13:05:43.098Z,101648.22
2018-05-16T13:08:10.742Z,101640.75
2018-05-16T13:10:38.567Z,101637.33
2018-05-16T13:13:06.191Z,101639.87
2018-05-16T13:15:33.860Z,101631.56
2018-05-16T13:18:01.755Z,101632.97
2018-05-16T13:20:29.536Z,101627.88
2018-05-16T13:22:57.471Z,101632.05
2018-05-16T13:25:25.050Z,101632.70
2018-05-16T13:27:52.862Z,101633.73
2018-05-16T13:30:20.453Z,101636.60
2018-05-16T13:32:48.027Z,101639.48
2018-05-16T13:35:15.684Z,101633.00
2018-05-16T13:37:43.253Z,101637.59
2018-05-16T13:40:10.853Z,101635.36
2018-05-16T13:42:38.883Z,101635.77
2018-05-16T13:45:06.448Z,101628.91
2018-05-16T13:47:34.315Z,101630.45
2018-05-16T13:50:02.143Z,101639.80
2018-05-16T13:52:29.941Z,101629.27
2018-05-16T13:54:57.643Z,101628.66
2018-05-16T13:57:25.448Z,101637.86
2018-05-16T13:59:53.012Z,101630.03
2018-05-16T14:02:20.626Z,101628.57
2018-05-16T14:04:48.189Z,101634.55
2018-05-16T14:07:15.762Z,101629.39
2018-05-16T14:09:43.848Z,101632.52
2018-05-16T14:12:11.650Z,101631.05
2018-05-16T14:14:39.220Z,101635.73
2018-05-16T14:17:07.056Z,101633.20
2018-05-16T14:19:34.588Z,101635.28
2018-05-16T14:22:02.151Z,101638.37
2018-05-16T14:24:29.737Z,101651.95
2018-05-16T14:26:57.297Z,101654.11
2018-05-16T14:29:25.206Z,101655.22
2018-05-16T14:31:52.799Z,101650.81
2018-05-16T14:34:20.443Z,101652.44
2018-05-16T14:36:48.070Z,101664.05
2018-05-16T14:39:15.908Z,101654.71
2018-05-16T14:41:43.474Z,101681.50
2018-05-16T14:44:11.102Z,101662.52
2018-05-16T14:46:38.662Z,101661.80
2018-05-16T14:49:06.221Z,101670.81
2018-05-16T14:51:33.809Z,101660.81
2018-05-16T14:54:01.378Z,101660.95
2018-05-16T14:56:29.078Z,101667.45
2018-05-16T14:58:56.640Z,101657.37
2018-05-16T15:01:24.207Z,101655.77
2018-05-16T15:03:51.821Z,101650.48
2018-05-16T15:06:19.405Z,101654.86
2018-05-16T15:08:47.115Z,101657.86
2018-05-16T15:11:15.727Z,101649.94
2018-05-16T15:13:43.538Z,101650.73
2018-05-16T15:16:11.264Z,101645.23
2018-05-16T15:18:38.891Z,101639.86
2018-05-16T15:21:06.815Z,101645.09
2018-05-16T15:23:35.102Z,101651.56
2018-05-16T15:26:02.672Z,101646.00
2018-05-16T15:28:30.323Z,101650.45
2018-05-16T15:30:57.927Z,101651.08
2018-05-16T15:33:25.493Z,101646.33
2018-05-16T15:35:53.183Z,101640.21
2018-05-16T15:38:20.858Z,101632.30
2018-05-16T15:40:48.371Z,101636.48
2018-05-16T15:43:15.964Z,101644.59
2018-05-16T15:45:43.769Z,101637.42
2018-05-16T15:48:11.416Z,101644.77
2018-05-16T15:50:38.980Z,101644.48
2018-05-16T15:53:06.598Z,101645.64
2018-05-16T15:55:34.168Z,101639.38
2018-05-16T15:58:01.743Z,101650.09
2018-05-16T16:00:29.618Z,101638.55
2018-05-16T16:02:57.187Z,101636.95
2018-05-16T16:05:24.777Z,101654.53
2018-05-16T16:07:52.408Z,101655.38
2018-05-16T16:10:20.062Z,101655.78
2018-05-16T16:12:47.681Z,101653.84
2018-05-16T16:15:15.341Z,101669.15
2018-05-16T16:17:43.163Z,101663.87
2018-05-16T16:20:10.754Z,101677.16
2018-05-16T16:22:38.363Z,101673.18
2018-05-16T16:25:05.926Z,101677.67
2018-05-16T16:27:33.488Z,101692.72
2018-05-16T16:30:01.078Z,101700.48
2018-05-16T16:32:28.697Z,101698.80
2018-05-16T16:34:56.361Z,101704.81
2018-05-16T16:37:23.927Z,101701.37
2018-05-16T16:39:51.548Z,101701.95
2018-05-16T16:42:19.879Z,101711.91
2018-05-16T16:44:47.863Z,101721.19
2018-05-16T16:47:15.335Z,101731.91
2018-05-16T16:49:42.936Z,101717.61
2018-05-16T16:52:10.560Z,101735.53
2018-05-16T16:54:38.220Z,101734.16
2018-05-16T16:57:05.811Z,101745.78
2018-05-16T16:59:33.440Z,101760.07
2018-05-16T17:02:01.107Z,101749.28
2018-05-16T17:04:29.344Z,101753.15
2018-05-16T17:06:56.931Z,101765.77
2018-05-16T17:09:24.982Z,101747.94
2018-05-16T17:11:52.584Z,101747.30
2018-05-16T17:14:20.252Z,101743.66
2018-05-16T17:16:47.909Z,101759.41
2018-05-16T17:19:15.657Z,101757.36
2018-05-16T17:21:43.375Z,101748.42
2018-05-16T17:24:11.173Z,101752.42
2018-05-16T17:26:38.857Z,101743.56
2018-05-16T17:29:06.527Z,101750.86
2018-05-16T17:31:34.320Z,101752.01
2018-05-16T17:34:02.508Z,101747.92
2018-05-16T17:36:30.398Z,101751.86
2018-05-16T17:38:57.980Z,101748.36
2018-05-16T17:41:25.576Z,101749.56
2018-05-16T17:43:53.181Z,101763.67
2018-05-16T17:46:20.924Z,101773.78
2018-05-16T17:48:48.486Z,101772.96
2018-05-16T17:51:16.112Z,101776.11
2018-05-16T17:53:43.712Z,101770.45
2018-05-16T17:56:11.302Z,101771.84
2018-05-16T17:58:38.888Z,101782.36
2018-05-16T18:01:06.506Z,101770.30
2018-05-16T18:03:34.065Z,101785.59
2018-05-16T18:06:01.661Z,101781.38
2018-05-16T18:08:30.008Z,101782.67
2018-05-16T18:10:57.653Z,101787.62
2018-05-16T18:16:49.214Z,101793.06
2018-05-16T18:19:16.860Z,101804.14
2018-05-16T18:21:44.454Z,101805.19
2018-05-16T18:24:12.153Z,101791.97
2018-05-16T18:26:39.779Z,101808.43
2018-05-16T18:29:07.344Z,101806.29
2018-05-16T18:31:34.992Z,101805.21
2018-05-16T18:34:02.548Z,101808.20
2018-05-16T18:36:30.351Z,101817.50
2018-05-16T18:38:58.476Z,101815.19
2018-05-16T18:41:26.042Z,101808.84
2018-05-16T18:43:53.609Z,101811.52
2018-05-16T18:46:21.248Z,101810.34
2018-05-16T18:48:48.841Z,101813.77
2018-05-16T18:51:16.460Z,101825.22
2018-05-16T18:53:44.203Z,101825.22
2018-05-16T18:56:11.765Z,101829.52
2018-05-16T18:58:39.348Z,101826.80
2018-05-16T19:01:06.942Z,101833.09
2018-05-16T19:03:34.531Z,101846.95
2018-05-16T19:06:02.171Z,101840.65
2018-05-16T19:08:29.999Z,101845.47
2018-05-16T19:10:57.631Z,101842.53
2018-05-16T19:13:25.214Z,101845.84
2018-05-16T19:15:52.921Z,101857.41
2018-05-16T19:18:20.545Z,101855.79
2018-05-16T19:20:48.116Z,101856.03
2018-05-16T19:23:15.822Z,101854.44
2018-05-16T19:25:43.379Z,101866.67
2018-05-16T19:28:11.318Z,101868.08
2018-05-16T19:30:38.907Z,101862.20
2018-05-16T19:33:06.848Z,101872.89
2018-05-16T19:35:34.416Z,101884.72
2018-05-16T19:38:02.015Z,101884.48
2018-05-16T19:40:29.961Z,101885.57
2018-05-16T19:42:57.764Z,101889.28
2018-05-16T19:45:25.479Z,101893.81
2018-05-16T19:47:53.279Z,101892.09
2018-05-16T19:50:20.841Z,101892.66
2018-05-16T19:52:48.549Z,101895.45
2018-05-16T19:55:16.346Z,101892.08
2018-05-16T19:57:44.140Z,101891.52
2018-05-16T20:00:11.847Z,101887.13
2018-05-16T20:02:39.448Z,101887.98
2018-05-16T20:05:07.091Z,101900.45
2018-05-16T20:07:35.015Z,101888.97
2018-05-16T20:10:03.009Z,101891.01
2018-05-16T20:12:30.697Z,101890.89
2018-05-16T20:14:58.300Z,101894.55
2018-05-16T20:17:25.898Z,101893.21
2018-05-16T20:19:53.489Z,101894.31
2018-05-16T20:22:21.331Z,101897.03
2018-05-16T20:24:49.136Z,101895.94
2018-05-16T20:27:17.055Z,101900.28
2018-05-16T20:29:44.646Z,101902.73
2018-05-16T20:32:12.255Z,101906.66
2018-05-16T20:34:40.099Z,101910.81
2018-05-16T20:37:07.703Z,101911.27
2018-05-16T20:39:35.330Z,101907.49
2018-05-16T20:42:03.240Z,101914.83
2018-05-16T20:44:30.903Z,101916.30
2018-05-16T20:46:58.535Z,101915.77
2018-05-16T20:49:27.384Z,101916.83
2018-05-16T20:51:54.987Z,101915.69
2018-05-16T20:54:22.710Z,101910.19
2018-05-16T20:56:50.281Z,101916.52
2018-05-16T20:59:17.919Z,101917.75
2018-05-16T21:01:45.544Z,101914.92
2018-05-16T21:04:13.163Z,101914.69
2018-05-16T21:06:40.787Z,101915.55
2018-05-16T21:09:08.414Z,101926.66
2018-05-16T21:11:35.990Z,101926.16
2018-05-16T21:14:03.829Z,101932.92
2018-05-16T21:16:31.461Z,101935.49
2018-05-16T21:18:59.112Z,101940.19
2018-05-16T21:21:26.696Z,101938.45
2018-05-16T21:23:54.690Z,101946.28
2018-05-16T21:26:22.284Z,101946.72
2018-05-16T21:28:50.102Z,101946.16
2018-05-16T21:31:18.337Z,101945.14
2018-05-16T21:33:45.944Z,101947.45
2018-05-16T21:36:13.518Z,101953.59
2018-05-16T21:38:41.251Z,101952.91
2018-05-16T21:41:08.833Z,101957.04
2018-05-16T21:43:36.439Z,101951.92
2018-05-16T21:46:04.406Z,101951.27
2018-05-16T21:48:31.975Z,101943.29
2018-05-16T21:50:59.738Z,101949.14
2018-05-16T21:53:27.407Z,101946.98
2018-05-16T21:55:55.171Z,101944.11
2018-05-16T21:58:22.979Z,101947.56
2018-05-16T22:00:50.558Z,101943.41
2018-05-16T22:03:18.158Z,101945.80
2018-05-16T22:05:46.106Z,101941.48
2018-05-16T22:08:13.905Z,101948.89
2018-05-16T22:10:41.786Z,101949.63
2018-05-16T22:13:09.674Z,101947.89
2018-05-16T22:15:37.383Z,101950.25
2018-05-16T22:18:05.192Z,101945.39
2018-05-16T22:20:33.026Z,101945.22
2018-05-16T22:23:01.039Z,101951.20
2018-05-16T22:25:28.632Z,101944.15
2018-05-16T22:27:56.267Z,101955.03
2018-05-16T22:30:29.920Z,101951.38
2018-05-16T22:33:03.061Z,101950.67
2018-05-16T22:35:36.230Z,101955.45
2018-05-16T22:38:09.219Z,101948.77
2018-05-16T22:40:42.356Z,101952.82
2018-05-16T22:43:09.403Z,101951.25
2018-05-16T22:45:39.390Z,101950.31
2018-05-16T22:48:07.044Z,101949.93
2018-05-16T22:50:34.658Z,101942.45
2018-05-16T22:53:02.286Z,101946.23
2018-05-16T22:55:29.985Z,101951.94
2018-05-16T22:57:57.570Z,101951.13
2018-05-16T23:00:25.251Z,101952.35
2018-05-16T23:02:53.169Z,101952.78
2018-05-16T23:05:21.198Z,101949.09
2018-05-16T23:07:48.772Z,101954.53
2018-05-16T23:10:16.334Z,101951.67
2018-05-16T23:12:43.920Z,101948.03
2018-05-16T23:15:11.523Z,101937.17
2018-05-16T23:17:39.112Z,101946.66
2018-05-16T23:22:33.774Z,101939.19
2018-05-16T23:25:01.560Z,101942.83
2018-05-16T23:27:29.128Z,101941.72
2018-05-16T23:29:56.706Z,101932.91
2018-05-16T23:32:24.302Z,101936.05
2018-05-16T23:34:52.012Z,101928.30
2018-05-16T23:37:19.572Z,101933.22
2018-05-16T23:39:47.148Z,101928.76
2018-05-16T23:42:14.838Z,101934.73
2018-05-16T23:44:42.429Z,101937.09
2018-05-16T23:47:09.999Z,101934.63
2018-05-16T23:49:37.602Z,101931.75
2018-05-16T23:52:05.448Z,101932.76
2018-05-16T23:54:33.373Z,101931.69
2018-05-16T23:57:00.952Z,101927.86
2018-05-16T23:59:28.540Z,101930.53
